AAL1498 MMMX-KMIA
Flight info
| Callsign | AAL1498 |
|---|---|
| Flight time | 2h 44m |
| Altitude | 35000 |
| Route | NOXOS3A NOXOS UT106 AXOMU UM346 CANOA SNDBR3 |
| Aircraft | B738/M-SDE2E3FGHIRWXY/LB1 |
Departure
| Time | 2026-04-30 11:12 |
|---|---|
| Airport | Mexico City Benito Juárez International Airport (MMMX) |
Arrival
| Time | 2026-04-30 13:57 |
|---|---|
| Airport | Miami International Airport (KMIA) |
| Time | Latitude | Longitude | Altitude | Speed | Heading |
|---|---|---|---|---|---|
| 2026-04-30 10:37 | 19.43782 | -99.07721 | 7302 ft | 0 kts | 244° |
| 2026-04-30 10:59 | 19.43785 | -99.07715 | 7302 ft | 4 kts | 245° |
| 2026-04-30 10:59 | 19.43795 | -99.07689 | 7302 ft | 4 kts | 253° |
| 2026-04-30 10:59 | 19.43801 | -99.07661 | 7302 ft | 4 kts | 261° |
| 2026-04-30 11:00 | 19.43804 | -99.07632 | 7302 ft | 4 kts | 268° |
| 2026-04-30 11:00 | 19.43804 | -99.07604 | 7302 ft | 4 kts | 272° |
| 2026-04-30 11:00 | 19.43804 | -99.07576 | 7302 ft | 4 kts | 257° |
| 2026-04-30 11:00 | 19.43808 | -99.07564 | 7302 ft | 1 kts | 239° |
| 2026-04-30 11:02 | 19.43807 | -99.07566 | 7302 ft | 0 kts | 239° |
| 2026-04-30 11:02 | 19.43805 | -99.07570 | 7302 ft | 1 kts | 239° |
| 2026-04-30 11:03 | 19.43801 | -99.07577 | 7302 ft | 1 kts | 239° |
| 2026-04-30 11:03 | 19.43796 | -99.07586 | 7302 ft | 2 kts | 239° |
| 2026-04-30 11:03 | 19.43787 | -99.07596 | 7302 ft | 2 kts | 224° |
| 2026-04-30 11:04 | 19.43747 | -99.07600 | 7302 ft | 4 kts | 164° |
| 2026-04-30 11:04 | 19.43722 | -99.07599 | 7302 ft | 4 kts | 191° |
| 2026-04-30 11:04 | 19.43701 | -99.07611 | 7302 ft | 3 kts | 221° |
| 2026-04-30 11:04 | 19.43687 | -99.07631 | 7302 ft | 3 kts | 236° |
| 2026-04-30 11:05 | 19.43673 | -99.07655 | 7302 ft | 4 kts | 239° |
| 2026-04-30 11:05 | 19.43655 | -99.07687 | 7302 ft | 6 kts | 239° |
| 2026-04-30 11:05 | 19.43633 | -99.07725 | 7302 ft | 7 kts | 239° |
| 2026-04-30 11:05 | 19.43617 | -99.07755 | 7302 ft | 7 kts | 239° |
| 2026-04-30 11:06 | 19.43580 | -99.07822 | 7302 ft | 9 kts | 239° |
| 2026-04-30 11:06 | 19.43558 | -99.07860 | 7302 ft | 9 kts | 239° |
| 2026-04-30 11:06 | 19.43512 | -99.07941 | 7302 ft | 10 kts | 239° |
| 2026-04-30 11:06 | 19.43474 | -99.08008 | 7302 ft | 11 kts | 239° |
| 2026-04-30 11:07 | 19.43448 | -99.08056 | 7302 ft | 11 kts | 239° |
| 2026-04-30 11:07 | 19.43410 | -99.08124 | 7302 ft | 11 kts | 239° |
| 2026-04-30 11:07 | 19.43373 | -99.08189 | 7302 ft | 10 kts | 239° |
| 2026-04-30 11:07 | 19.43336 | -99.08256 | 7302 ft | 11 kts | 239° |
| 2026-04-30 11:08 | 19.43295 | -99.08328 | 7302 ft | 12 kts | 239° |
| 2026-04-30 11:08 | 19.43230 | -99.08444 | 7302 ft | 16 kts | 239° |
| 2026-04-30 11:08 | 19.43190 | -99.08515 | 7302 ft | 15 kts | 240° |
| 2026-04-30 11:08 | 19.43151 | -99.08588 | 7302 ft | 12 kts | 240° |
| 2026-04-30 11:09 | 19.43108 | -99.08661 | 7302 ft | 11 kts | 239° |
| 2026-04-30 11:09 | 19.43074 | -99.08716 | 7302 ft | 7 kts | 219° |
| 2026-04-30 11:09 | 19.43043 | -99.08723 | 7302 ft | 0 kts | 176° |
| 2026-04-30 11:10 | 19.43041 | -99.08723 | 7302 ft | 1 kts | 176° |
| 2026-04-30 11:10 | 19.43020 | -99.08722 | 7302 ft | 5 kts | 176° |
| 2026-04-30 11:10 | 19.42979 | -99.08715 | 7301 ft | 7 kts | 156° |
| 2026-04-30 11:10 | 19.42972 | -99.08671 | 7300 ft | 7 kts | 64° |
| 2026-04-30 11:11 | 19.42982 | -99.08652 | 7300 ft | 0 kts | 58° |
| 2026-04-30 11:11 | 19.43060 | -99.08514 | 7301 ft | 54 kts | 59° |
| 2026-04-30 11:11 | 19.43361 | -99.07977 | 7303 ft | 116 kts | 59° |
| 2026-04-30 11:12 | 19.43874 | -99.07066 | 7303 ft | 170 kts | 59° |
| 2026-04-30 11:12 | 19.44527 | -99.05902 | 7750 ft | 187 kts | 59° |
| 2026-04-30 11:12 | 19.45204 | -99.04689 | 8885 ft | 195 kts | 59° |
| 2026-04-30 11:12 | 19.45924 | -99.03402 | 9158 ft | 213 kts | 59° |
| 2026-04-30 11:13 | 19.46716 | -99.01998 | 9218 ft | 232 kts | 59° |
| 2026-04-30 11:13 | 19.47577 | -99.00471 | 9274 ft | 250 kts | 59° |
| 2026-04-30 11:13 | 19.48499 | -98.98834 | 9332 ft | 265 kts | 59° |
| 2026-04-30 11:13 | 19.49457 | -98.97128 | 9552 ft | 275 kts | 59° |
| 2026-04-30 11:14 | 19.50469 | -98.95324 | 9728 ft | 292 kts | 59° |
| 2026-04-30 11:14 | 19.51518 | -98.93451 | 10272 ft | 297 kts | 59° |
| 2026-04-30 11:14 | 19.52572 | -98.91570 | 10979 ft | 296 kts | 59° |
| 2026-04-30 11:14 | 19.53517 | -98.89636 | 11624 ft | 298 kts | 70° |
| 2026-04-30 11:15 | 19.54099 | -98.87516 | 12251 ft | 301 kts | 74° |
| 2026-04-30 11:15 | 19.54632 | -98.85354 | 12871 ft | 304 kts | 74° |
| 2026-04-30 11:15 | 19.55172 | -98.83178 | 13528 ft | 306 kts | 73° |
| 2026-04-30 11:15 | 19.55729 | -98.80987 | 14143 ft | 309 kts | 73° |
| 2026-04-30 11:16 | 19.56301 | -98.78782 | 14712 ft | 312 kts | 73° |
| 2026-04-30 11:16 | 19.56885 | -98.76553 | 15279 ft | 315 kts | 72° |
| 2026-04-30 11:16 | 19.57476 | -98.74307 | 15859 ft | 318 kts | 72° |
| 2026-04-30 11:16 | 19.58035 | -98.72025 | 16349 ft | 325 kts | 76° |
| 2026-04-30 11:17 | 19.58488 | -98.69601 | 16430 ft | 344 kts | 78° |
| 2026-04-30 11:17 | 19.58907 | -98.67068 | 16532 ft | 361 kts | 78° |
| 2026-04-30 11:17 | 19.59345 | -98.64392 | 16668 ft | 376 kts | 78° |
| 2026-04-30 11:17 | 19.59807 | -98.61630 | 17063 ft | 382 kts | 78° |
| 2026-04-30 11:18 | 19.60282 | -98.58847 | 17614 ft | 384 kts | 77° |
| 2026-04-30 11:18 | 19.61255 | -98.53253 | 18635 ft | 388 kts | 77° |
| 2026-04-30 11:18 | 19.61658 | -98.50418 | 19041 ft | 393 kts | 85° |
| 2026-04-30 11:19 | 19.61598 | -98.47501 | 19463 ft | 397 kts | 91° |
| 2026-04-30 11:19 | 19.61454 | -98.44570 | 19907 ft | 399 kts | 91° |
| 2026-04-30 11:19 | 19.61346 | -98.41624 | 20335 ft | 401 kts | 90° |
| 2026-04-30 11:19 | 19.61263 | -98.38650 | 20743 ft | 404 kts | 90° |
| 2026-04-30 11:20 | 19.61183 | -98.35662 | 21159 ft | 407 kts | 90° |
| 2026-04-30 11:20 | 19.61102 | -98.32649 | 21573 ft | 409 kts | 90° |
| 2026-04-30 11:20 | 19.61020 | -98.29625 | 21975 ft | 412 kts | 90° |
| 2026-04-30 11:20 | 19.60937 | -98.26577 | 22360 ft | 415 kts | 90° |
| 2026-04-30 11:21 | 19.60851 | -98.23507 | 22744 ft | 417 kts | 90° |
| 2026-04-30 11:21 | 19.60764 | -98.20421 | 23142 ft | 420 kts | 90° |
| 2026-04-30 11:21 | 19.60676 | -98.17317 | 23505 ft | 422 kts | 90° |
| 2026-04-30 11:21 | 19.60587 | -98.14197 | 23814 ft | 424 kts | 90° |
| 2026-04-30 11:22 | 19.60498 | -98.11067 | 24136 ft | 426 kts | 90° |
| 2026-04-30 11:22 | 19.60407 | -98.07915 | 24458 ft | 428 kts | 90° |
| 2026-04-30 11:22 | 19.60316 | -98.04754 | 24778 ft | 430 kts | 90° |
| 2026-04-30 11:22 | 19.60273 | -98.01629 | 25070 ft | 431 kts | 85° |
| 2026-04-30 11:23 | 19.60879 | -97.98589 | 25338 ft | 430 kts | 69° |
| 2026-04-30 11:23 | 19.61950 | -97.95626 | 25679 ft | 431 kts | 67° |
| 2026-04-30 11:23 | 19.64198 | -97.89697 | 26255 ft | 436 kts | 67° |
| 2026-04-30 11:24 | 19.65324 | -97.86707 | 26541 ft | 438 kts | 67° |
| 2026-04-30 11:24 | 19.66446 | -97.83692 | 26832 ft | 440 kts | 67° |
| 2026-04-30 11:24 | 19.67561 | -97.80662 | 27116 ft | 442 kts | 68° |
| 2026-04-30 11:25 | 19.69788 | -97.74559 | 27658 ft | 446 kts | 68° |
| 2026-04-30 11:25 | 19.70908 | -97.71477 | 27936 ft | 448 kts | 68° |
| 2026-04-30 11:25 | 19.73157 | -97.65285 | 28466 ft | 452 kts | 68° |
| 2026-04-30 11:26 | 19.75427 | -97.59035 | 28974 ft | 456 kts | 67° |
| 2026-04-30 11:26 | 19.76568 | -97.55889 | 29223 ft | 457 kts | 67° |
| 2026-04-30 11:26 | 19.77713 | -97.52733 | 29478 ft | 459 kts | 67° |
| 2026-04-30 11:27 | 19.78861 | -97.49563 | 29771 ft | 460 kts | 67° |
| 2026-04-30 11:27 | 19.80006 | -97.46402 | 30111 ft | 459 kts | 67° |
| 2026-04-30 11:27 | 19.81149 | -97.43243 | 30466 ft | 457 kts | 67° |
| 2026-04-30 11:27 | 19.82285 | -97.40100 | 30790 ft | 455 kts | 67° |
| 2026-04-30 11:28 | 19.84552 | -97.33831 | 31381 ft | 454 kts | 67° |
| 2026-04-30 11:28 | 19.85682 | -97.30703 | 31707 ft | 453 kts | 66° |
| 2026-04-30 11:28 | 19.86809 | -97.27582 | 32015 ft | 452 kts | 66° |
| 2026-04-30 11:29 | 19.87937 | -97.24458 | 32317 ft | 452 kts | 66° |
| 2026-04-30 11:29 | 19.89059 | -97.21344 | 32611 ft | 451 kts | 66° |
| 2026-04-30 11:29 | 19.91298 | -97.15127 | 33211 ft | 450 kts | 66° |
| 2026-04-30 11:30 | 19.93517 | -97.08961 | 33802 ft | 449 kts | 66° |
| 2026-04-30 11:30 | 19.94629 | -97.05866 | 34044 ft | 448 kts | 66° |
| 2026-04-30 11:30 | 19.95755 | -97.02732 | 34255 ft | 448 kts | 66° |
| 2026-04-30 11:31 | 19.96867 | -96.99633 | 34475 ft | 448 kts | 66° |
| 2026-04-30 11:31 | 19.97962 | -96.96582 | 34694 ft | 448 kts | 66° |
| 2026-04-30 11:31 | 19.99072 | -96.93486 | 34792 ft | 450 kts | 66° |
| 2026-04-30 11:32 | 20.01302 | -96.87259 | 34785 ft | 449 kts | 66° |
| 2026-04-30 11:32 | 20.03514 | -96.81073 | 34789 ft | 446 kts | 66° |
| 2026-04-30 11:33 | 20.06802 | -96.71867 | 34789 ft | 442 kts | 66° |
| 2026-04-30 11:33 | 20.08981 | -96.65757 | 34788 ft | 442 kts | 66° |
| 2026-04-30 11:34 | 20.11161 | -96.59638 | 34791 ft | 442 kts | 66° |
| 2026-04-30 11:34 | 20.13329 | -96.53545 | 34800 ft | 443 kts | 66° |
| 2026-04-30 11:35 | 20.15512 | -96.47402 | 34801 ft | 445 kts | 66° |
| 2026-04-30 11:35 | 20.17704 | -96.41223 | 34804 ft | 447 kts | 66° |
| 2026-04-30 11:36 | 20.19903 | -96.35019 | 34807 ft | 449 kts | 66° |
| 2026-04-30 11:36 | 20.22107 | -96.28790 | 34812 ft | 451 kts | 66° |
| 2026-04-30 11:37 | 20.24318 | -96.22535 | 34814 ft | 452 kts | 66° |
| 2026-04-30 11:37 | 20.26531 | -96.16263 | 34815 ft | 452 kts | 66° |
| 2026-04-30 11:38 | 20.28741 | -96.09994 | 34817 ft | 452 kts | 66° |
| 2026-04-30 11:38 | 20.30955 | -96.03726 | 34819 ft | 451 kts | 64° |
| 2026-04-30 11:39 | 20.34083 | -95.98039 | 34824 ft | 442 kts | 49° |
| 2026-04-30 11:39 | 20.37921 | -95.92971 | 34817 ft | 442 kts | 48° |
| 2026-04-30 11:40 | 20.41790 | -95.87893 | 34829 ft | 441 kts | 48° |
| 2026-04-30 11:40 | 20.45629 | -95.82788 | 34826 ft | 441 kts | 48° |
| 2026-04-30 11:41 | 20.49445 | -95.77672 | 34827 ft | 441 kts | 49° |
| 2026-04-30 11:41 | 20.53256 | -95.72551 | 34827 ft | 441 kts | 49° |
| 2026-04-30 11:42 | 20.57070 | -95.67423 | 34829 ft | 441 kts | 49° |
| 2026-04-30 11:42 | 20.60886 | -95.62287 | 34830 ft | 442 kts | 48° |
| 2026-04-30 11:43 | 20.64686 | -95.57170 | 34834 ft | 442 kts | 49° |
| 2026-04-30 11:43 | 20.68506 | -95.52020 | 34831 ft | 443 kts | 49° |
| 2026-04-30 11:44 | 20.72339 | -95.46850 | 34833 ft | 444 kts | 49° |
| 2026-04-30 11:44 | 20.76171 | -95.41675 | 34835 ft | 444 kts | 49° |
| 2026-04-30 11:45 | 20.80006 | -95.36491 | 34837 ft | 445 kts | 49° |
| 2026-04-30 11:45 | 20.83841 | -95.31303 | 34837 ft | 445 kts | 49° |
| 2026-04-30 11:46 | 20.87681 | -95.26103 | 34837 ft | 445 kts | 49° |
| 2026-04-30 11:46 | 20.91518 | -95.20902 | 34842 ft | 445 kts | 49° |
| 2026-04-30 11:47 | 20.95354 | -95.15698 | 34842 ft | 445 kts | 49° |
| 2026-04-30 11:47 | 20.99186 | -95.10492 | 34839 ft | 445 kts | 49° |
| 2026-04-30 11:48 | 21.02979 | -95.05338 | 34844 ft | 445 kts | 49° |
| 2026-04-30 11:48 | 21.06594 | -94.99953 | 34840 ft | 449 kts | 58° |
| 2026-04-30 11:49 | 21.08845 | -94.93736 | 34847 ft | 453 kts | 70° |
| 2026-04-30 11:49 | 21.10640 | -94.87262 | 34843 ft | 454 kts | 70° |
| 2026-04-30 11:50 | 21.12438 | -94.80778 | 34851 ft | 454 kts | 70° |
| 2026-04-30 11:50 | 21.14266 | -94.74313 | 34849 ft | 454 kts | 70° |
| 2026-04-30 11:51 | 21.16112 | -94.67846 | 34852 ft | 454 kts | 70° |
| 2026-04-30 11:51 | 21.17959 | -94.61378 | 34847 ft | 454 kts | 70° |
| 2026-04-30 11:52 | 21.19802 | -94.54911 | 34845 ft | 454 kts | 70° |
| 2026-04-30 11:52 | 21.21644 | -94.48436 | 34848 ft | 454 kts | 70° |
| 2026-04-30 11:53 | 21.23473 | -94.41994 | 34851 ft | 454 kts | 70° |
| 2026-04-30 11:53 | 21.25310 | -94.35512 | 34853 ft | 455 kts | 70° |
| 2026-04-30 11:54 | 21.27145 | -94.29027 | 34853 ft | 455 kts | 70° |
| 2026-04-30 11:54 | 21.28981 | -94.22528 | 34853 ft | 455 kts | 70° |
| 2026-04-30 11:55 | 21.30814 | -94.16030 | 34847 ft | 455 kts | 70° |
| 2026-04-30 11:55 | 21.32645 | -94.09530 | 34847 ft | 456 kts | 70° |
| 2026-04-30 11:56 | 21.34167 | -94.04116 | 34853 ft | 456 kts | 70° |
| 2026-04-30 11:56 | 21.35998 | -93.97596 | 34852 ft | 456 kts | 70° |
| 2026-04-30 11:57 | 21.37827 | -93.91072 | 34853 ft | 457 kts | 70° |
| 2026-04-30 11:57 | 21.39655 | -93.84539 | 34855 ft | 458 kts | 70° |
| 2026-04-30 11:58 | 21.41485 | -93.77989 | 34853 ft | 459 kts | 70° |
| 2026-04-30 11:58 | 21.43318 | -93.71421 | 34878 ft | 459 kts | 70° |
| 2026-04-30 11:59 | 21.45141 | -93.64875 | 34860 ft | 460 kts | 70° |
| 2026-04-30 11:59 | 21.46973 | -93.58283 | 34861 ft | 461 kts | 70° |
| 2026-04-30 12:00 | 21.48805 | -93.51682 | 34860 ft | 461 kts | 70° |
| 2026-04-30 12:00 | 21.50636 | -93.45076 | 34863 ft | 461 kts | 70° |
| 2026-04-30 12:01 | 21.52462 | -93.38475 | 34862 ft | 461 kts | 70° |
| 2026-04-30 12:01 | 21.54284 | -93.31877 | 34868 ft | 460 kts | 70° |
| 2026-04-30 12:02 | 21.56103 | -93.25278 | 34867 ft | 459 kts | 70° |
| 2026-04-30 12:02 | 21.57913 | -93.18705 | 34865 ft | 458 kts | 70° |
| 2026-04-30 12:03 | 21.60606 | -93.08899 | 34865 ft | 457 kts | 70° |
| 2026-04-30 12:04 | 21.62401 | -93.02351 | 34867 ft | 456 kts | 70° |
| 2026-04-30 12:04 | 21.64188 | -92.95820 | 34864 ft | 455 kts | 70° |
| 2026-04-30 12:05 | 21.65970 | -92.89295 | 34873 ft | 454 kts | 70° |
| 2026-04-30 12:05 | 21.67748 | -92.82776 | 34876 ft | 454 kts | 70° |
| 2026-04-30 12:06 | 21.69522 | -92.76262 | 34874 ft | 454 kts | 70° |
| 2026-04-30 12:06 | 21.71291 | -92.69750 | 34872 ft | 453 kts | 70° |
| 2026-04-30 12:07 | 21.73055 | -92.63240 | 34873 ft | 453 kts | 70° |
| 2026-04-30 12:07 | 21.74815 | -92.56735 | 34878 ft | 453 kts | 70° |
| 2026-04-30 12:08 | 21.76570 | -92.50233 | 34875 ft | 453 kts | 70° |
| 2026-04-30 12:08 | 21.78325 | -92.43724 | 34874 ft | 452 kts | 70° |
| 2026-04-30 12:09 | 21.80076 | -92.37220 | 34877 ft | 452 kts | 70° |
| 2026-04-30 12:09 | 21.81810 | -92.30765 | 34884 ft | 452 kts | 70° |
| 2026-04-30 12:10 | 21.83553 | -92.24266 | 34886 ft | 452 kts | 70° |
| 2026-04-30 12:10 | 21.85294 | -92.17765 | 34883 ft | 452 kts | 70° |
| 2026-04-30 12:11 | 21.87033 | -92.11260 | 34886 ft | 452 kts | 70° |
| 2026-04-30 12:11 | 21.88771 | -92.04749 | 34888 ft | 452 kts | 70° |
| 2026-04-30 12:12 | 21.90506 | -91.98235 | 34889 ft | 453 kts | 70° |
| 2026-04-30 12:12 | 21.92239 | -91.91720 | 34891 ft | 453 kts | 70° |
| 2026-04-30 12:13 | 21.93971 | -91.85195 | 34890 ft | 453 kts | 70° |
| 2026-04-30 12:13 | 21.95700 | -91.78669 | 34890 ft | 453 kts | 70° |
| 2026-04-30 12:14 | 21.97428 | -91.72138 | 34893 ft | 453 kts | 70° |
| 2026-04-30 12:14 | 21.99153 | -91.65605 | 34895 ft | 453 kts | 70° |
| 2026-04-30 12:15 | 22.00856 | -91.59145 | 34898 ft | 453 kts | 69° |
| 2026-04-30 12:15 | 22.02576 | -91.52610 | 34899 ft | 453 kts | 69° |
| 2026-04-30 12:16 | 22.04293 | -91.46074 | 34902 ft | 453 kts | 69° |
| 2026-04-30 12:16 | 22.05999 | -91.39581 | 34905 ft | 453 kts | 69° |
| 2026-04-30 12:17 | 22.08573 | -91.29782 | 34909 ft | 452 kts | 69° |
| 2026-04-30 12:17 | 22.10283 | -91.23256 | 34911 ft | 452 kts | 69° |
| 2026-04-30 12:18 | 22.11988 | -91.16737 | 34911 ft | 452 kts | 69° |
| 2026-04-30 12:18 | 22.13689 | -91.10217 | 34909 ft | 451 kts | 69° |
| 2026-04-30 12:19 | 22.15387 | -91.03701 | 34912 ft | 451 kts | 69° |
| 2026-04-30 12:19 | 22.17080 | -90.97192 | 34915 ft | 450 kts | 69° |
| 2026-04-30 12:20 | 22.18770 | -90.90685 | 34916 ft | 450 kts | 69° |
| 2026-04-30 12:20 | 22.20442 | -90.84233 | 34919 ft | 449 kts | 69° |
| 2026-04-30 12:21 | 22.22121 | -90.77742 | 34921 ft | 449 kts | 69° |
| 2026-04-30 12:21 | 22.23798 | -90.71251 | 34921 ft | 449 kts | 69° |
| 2026-04-30 12:22 | 22.25470 | -90.64762 | 34920 ft | 448 kts | 69° |
| 2026-04-30 12:22 | 22.27139 | -90.58279 | 34924 ft | 448 kts | 69° |
| 2026-04-30 12:23 | 22.28805 | -90.51793 | 34926 ft | 448 kts | 69° |
| 2026-04-30 12:23 | 22.30465 | -90.45310 | 34928 ft | 448 kts | 69° |
| 2026-04-30 12:24 | 22.32114 | -90.38824 | 34930 ft | 448 kts | 69° |
| 2026-04-30 12:24 | 22.33761 | -90.32335 | 34934 ft | 448 kts | 69° |
| 2026-04-30 12:25 | 22.35397 | -90.25888 | 34932 ft | 448 kts | 69° |
| 2026-04-30 12:25 | 22.37044 | -90.19398 | 34932 ft | 448 kts | 69° |
| 2026-04-30 12:26 | 22.38688 | -90.12907 | 34937 ft | 448 kts | 69° |
| 2026-04-30 12:26 | 22.40333 | -90.06401 | 34937 ft | 448 kts | 69° |
| 2026-04-30 12:27 | 22.41973 | -89.99897 | 34939 ft | 448 kts | 69° |
| 2026-04-30 12:27 | 22.43609 | -89.93399 | 34943 ft | 448 kts | 69° |
| 2026-04-30 12:28 | 22.45232 | -89.86941 | 34942 ft | 448 kts | 69° |
| 2026-04-30 12:28 | 22.46863 | -89.80438 | 34942 ft | 448 kts | 69° |
| 2026-04-30 12:29 | 22.48492 | -89.73935 | 34943 ft | 447 kts | 69° |
| 2026-04-30 12:29 | 22.50116 | -89.67441 | 34946 ft | 447 kts | 69° |
| 2026-04-30 12:30 | 22.51736 | -89.60949 | 34947 ft | 447 kts | 69° |
| 2026-04-30 12:30 | 22.53351 | -89.54463 | 34950 ft | 446 kts | 69° |
| 2026-04-30 12:31 | 22.54963 | -89.47978 | 34948 ft | 446 kts | 70° |
| 2026-04-30 12:31 | 22.56571 | -89.41497 | 34948 ft | 446 kts | 70° |
| 2026-04-30 12:32 | 22.58175 | -89.35018 | 34951 ft | 446 kts | 70° |
| 2026-04-30 12:32 | 22.59777 | -89.28540 | 34951 ft | 446 kts | 70° |
| 2026-04-30 12:33 | 22.61364 | -89.22108 | 34956 ft | 445 kts | 70° |
| 2026-04-30 12:33 | 22.62961 | -89.15624 | 34955 ft | 445 kts | 70° |
| 2026-04-30 12:34 | 22.64554 | -89.09141 | 34954 ft | 445 kts | 70° |
| 2026-04-30 12:34 | 22.66147 | -89.02651 | 34957 ft | 446 kts | 70° |
| 2026-04-30 12:35 | 22.67736 | -88.96159 | 34955 ft | 446 kts | 70° |
| 2026-04-30 12:35 | 22.69323 | -88.89668 | 34956 ft | 446 kts | 70° |
| 2026-04-30 12:36 | 22.70909 | -88.83169 | 34959 ft | 446 kts | 70° |
| 2026-04-30 12:36 | 22.72492 | -88.76667 | 34958 ft | 447 kts | 70° |
| 2026-04-30 12:37 | 22.74075 | -88.70154 | 34959 ft | 447 kts | 70° |
| 2026-04-30 12:37 | 22.75648 | -88.63669 | 34959 ft | 447 kts | 70° |
| 2026-04-30 12:38 | 22.77227 | -88.57148 | 34958 ft | 448 kts | 70° |
| 2026-04-30 12:38 | 22.78810 | -88.50607 | 34961 ft | 448 kts | 70° |
| 2026-04-30 12:39 | 22.80392 | -88.44073 | 34961 ft | 449 kts | 70° |
| 2026-04-30 12:39 | 22.81973 | -88.37527 | 34963 ft | 449 kts | 70° |
| 2026-04-30 12:40 | 22.83550 | -88.30982 | 34962 ft | 449 kts | 70° |
| 2026-04-30 12:40 | 22.85127 | -88.24425 | 34964 ft | 449 kts | 70° |
| 2026-04-30 12:41 | 22.86701 | -88.17861 | 34962 ft | 450 kts | 70° |
| 2026-04-30 12:41 | 22.88271 | -88.11294 | 34965 ft | 450 kts | 70° |
| 2026-04-30 12:42 | 22.89829 | -88.04767 | 34968 ft | 450 kts | 70° |
| 2026-04-30 12:42 | 22.91395 | -87.98190 | 34968 ft | 450 kts | 70° |
| 2026-04-30 12:43 | 22.92958 | -87.91613 | 34964 ft | 450 kts | 70° |
| 2026-04-30 12:43 | 22.94518 | -87.85037 | 34965 ft | 451 kts | 70° |
| 2026-04-30 12:44 | 22.96077 | -87.78450 | 34965 ft | 451 kts | 70° |
| 2026-04-30 12:44 | 22.97383 | -87.72927 | 34964 ft | 451 kts | 70° |
| 2026-04-30 12:45 | 22.98938 | -87.66335 | 34969 ft | 451 kts | 70° |
| 2026-04-30 12:45 | 23.00464 | -87.59853 | 34967 ft | 451 kts | 70° |
| 2026-04-30 12:46 | 23.02015 | -87.53249 | 34972 ft | 452 kts | 70° |
| 2026-04-30 12:46 | 23.03566 | -87.46638 | 34973 ft | 452 kts | 70° |
| 2026-04-30 12:47 | 23.05113 | -87.40027 | 34975 ft | 452 kts | 70° |
| 2026-04-30 12:47 | 23.06659 | -87.33405 | 34969 ft | 452 kts | 70° |
| 2026-04-30 12:48 | 23.08204 | -87.26777 | 34973 ft | 452 kts | 70° |
| 2026-04-30 12:48 | 23.09745 | -87.20151 | 34970 ft | 453 kts | 70° |
| 2026-04-30 12:49 | 23.11284 | -87.13524 | 34971 ft | 453 kts | 70° |
| 2026-04-30 12:49 | 23.12813 | -87.06924 | 34972 ft | 453 kts | 70° |
| 2026-04-30 12:50 | 23.14347 | -87.00288 | 34970 ft | 453 kts | 70° |
| 2026-04-30 12:50 | 23.15880 | -86.93644 | 34974 ft | 453 kts | 71° |
| 2026-04-30 12:51 | 23.17411 | -86.86993 | 34975 ft | 454 kts | 71° |
| 2026-04-30 12:51 | 23.18939 | -86.80342 | 34975 ft | 454 kts | 71° |
| 2026-04-30 12:52 | 23.20467 | -86.73680 | 34975 ft | 454 kts | 71° |
| 2026-04-30 12:52 | 23.21992 | -86.67013 | 34975 ft | 454 kts | 71° |
| 2026-04-30 12:53 | 23.23510 | -86.60348 | 34975 ft | 454 kts | 71° |
| 2026-04-30 12:53 | 23.25023 | -86.53675 | 34976 ft | 454 kts | 71° |
| 2026-04-30 12:54 | 23.26533 | -86.47000 | 34977 ft | 455 kts | 71° |
| 2026-04-30 12:54 | 23.28041 | -86.40321 | 34979 ft | 455 kts | 71° |
| 2026-04-30 12:55 | 23.29548 | -86.33638 | 34979 ft | 455 kts | 71° |
| 2026-04-30 12:55 | 23.31053 | -86.26958 | 34978 ft | 454 kts | 71° |
| 2026-04-30 12:56 | 23.32557 | -86.20278 | 34981 ft | 454 kts | 71° |
| 2026-04-30 12:56 | 23.34057 | -86.13597 | 34978 ft | 454 kts | 72° |
| 2026-04-30 12:57 | 23.35544 | -86.06961 | 34978 ft | 454 kts | 72° |
| 2026-04-30 12:57 | 23.37036 | -86.00290 | 34981 ft | 454 kts | 72° |
| 2026-04-30 12:58 | 23.38525 | -85.93606 | 34981 ft | 454 kts | 72° |
| 2026-04-30 12:58 | 23.40008 | -85.86923 | 34981 ft | 454 kts | 72° |
| 2026-04-30 12:59 | 23.41488 | -85.80242 | 34982 ft | 454 kts | 72° |
| 2026-04-30 12:59 | 23.42966 | -85.73559 | 34979 ft | 454 kts | 72° |
| 2026-04-30 13:00 | 23.44441 | -85.66872 | 34985 ft | 454 kts | 72° |
| 2026-04-30 13:00 | 23.45912 | -85.60188 | 34986 ft | 454 kts | 72° |
| 2026-04-30 13:01 | 23.47381 | -85.53502 | 34985 ft | 454 kts | 72° |
| 2026-04-30 13:01 | 23.48848 | -85.46853 | 34987 ft | 454 kts | 72° |
| 2026-04-30 13:02 | 23.50331 | -85.40154 | 34990 ft | 455 kts | 72° |
| 2026-04-30 13:02 | 23.51810 | -85.33454 | 34984 ft | 455 kts | 72° |
| 2026-04-30 13:03 | 23.53287 | -85.26742 | 34982 ft | 456 kts | 72° |
| 2026-04-30 13:03 | 23.54763 | -85.20021 | 34993 ft | 456 kts | 72° |
| 2026-04-30 13:04 | 23.56235 | -85.13300 | 34989 ft | 456 kts | 72° |
| 2026-04-30 13:04 | 23.57707 | -85.06566 | 34986 ft | 457 kts | 72° |
| 2026-04-30 13:05 | 23.59169 | -84.99831 | 34987 ft | 457 kts | 72° |
| 2026-04-30 13:06 | 23.61349 | -84.89759 | 34984 ft | 457 kts | 72° |
| 2026-04-30 13:06 | 23.62806 | -84.83010 | 34987 ft | 457 kts | 72° |
| 2026-04-30 13:07 | 23.64262 | -84.76252 | 34980 ft | 457 kts | 72° |
| 2026-04-30 13:07 | 23.65712 | -84.69508 | 34989 ft | 457 kts | 72° |
| 2026-04-30 13:08 | 23.67159 | -84.62760 | 34987 ft | 456 kts | 72° |
| 2026-04-30 13:08 | 23.68602 | -84.56018 | 34988 ft | 456 kts | 72° |
| 2026-04-30 13:09 | 23.70041 | -84.49281 | 34989 ft | 456 kts | 72° |
| 2026-04-30 13:09 | 23.71477 | -84.42542 | 34982 ft | 456 kts | 72° |
| 2026-04-30 13:10 | 23.72909 | -84.35803 | 34988 ft | 455 kts | 72° |
| 2026-04-30 13:10 | 23.74338 | -84.29066 | 34991 ft | 455 kts | 72° |
| 2026-04-30 13:11 | 23.75764 | -84.22328 | 34991 ft | 455 kts | 72° |
| 2026-04-30 13:11 | 23.77183 | -84.15592 | 34991 ft | 455 kts | 72° |
| 2026-04-30 13:12 | 23.78597 | -84.08860 | 34988 ft | 455 kts | 72° |
| 2026-04-30 13:12 | 23.79999 | -84.02166 | 34991 ft | 455 kts | 72° |
| 2026-04-30 13:13 | 23.82108 | -83.92071 | 34997 ft | 454 kts | 72° |
| 2026-04-30 13:14 | 23.84211 | -83.81972 | 34995 ft | 454 kts | 72° |
| 2026-04-30 13:14 | 23.86303 | -83.71891 | 34993 ft | 453 kts | 72° |
| 2026-04-30 13:15 | 23.88387 | -83.61815 | 34995 ft | 453 kts | 72° |
| 2026-04-30 13:16 | 23.89770 | -83.55105 | 34995 ft | 452 kts | 73° |
| 2026-04-30 13:16 | 23.91149 | -83.48402 | 34995 ft | 452 kts | 73° |
| 2026-04-30 13:17 | 23.93208 | -83.38364 | 34993 ft | 451 kts | 73° |
| 2026-04-30 13:18 | 23.95259 | -83.28332 | 34992 ft | 450 kts | 73° |
| 2026-04-30 13:18 | 23.97292 | -83.18350 | 35000 ft | 450 kts | 73° |
| 2026-04-30 13:19 | 23.98649 | -83.11669 | 34996 ft | 450 kts | 73° |
| 2026-04-30 13:19 | 24.00002 | -83.04995 | 34999 ft | 450 kts | 73° |
| 2026-04-30 13:20 | 24.01471 | -82.98423 | 34996 ft | 449 kts | 71° |
| 2026-04-30 13:20 | 24.03048 | -82.91811 | 34998 ft | 449 kts | 71° |
| 2026-04-30 13:21 | 24.04610 | -82.85191 | 35002 ft | 449 kts | 71° |
| 2026-04-30 13:22 | 24.06918 | -82.75253 | 35000 ft | 449 kts | 72° |
| 2026-04-30 13:22 | 24.09216 | -82.65298 | 35005 ft | 450 kts | 72° |
| 2026-04-30 13:23 | 24.11509 | -82.55339 | 35002 ft | 449 kts | 72° |
| 2026-04-30 13:24 | 24.14543 | -82.42112 | 35004 ft | 449 kts | 72° |
| 2026-04-30 13:25 | 24.18014 | -82.29065 | 35011 ft | 442 kts | 61° |
| 2026-04-30 13:26 | 24.24819 | -82.14031 | 35002 ft | 440 kts | 60° |
| 2026-04-30 13:28 | 24.31410 | -81.98925 | 35008 ft | 439 kts | 60° |
| 2026-04-30 13:28 | 24.35347 | -81.89860 | 35018 ft | 438 kts | 61° |
| 2026-04-30 13:29 | 24.40577 | -81.77793 | 35025 ft | 437 kts | 61° |
| 2026-04-30 13:31 | 24.47064 | -81.62783 | 35017 ft | 435 kts | 60° |
| 2026-04-30 13:31 | 24.51964 | -81.55922 | 35005 ft | 426 kts | 44° |
| 2026-04-30 13:32 | 24.56027 | -81.51098 | 34003 ft | 430 kts | 45° |
| 2026-04-30 13:32 | 24.60033 | -81.46216 | 32721 ft | 431 kts | 45° |
| 2026-04-30 13:33 | 24.64003 | -81.41325 | 31451 ft | 432 kts | 45° |
| 2026-04-30 13:33 | 24.67997 | -81.36401 | 30377 ft | 429 kts | 45° |
| 2026-04-30 13:34 | 24.69976 | -81.33954 | 29860 ft | 427 kts | 46° |
| 2026-04-30 13:34 | 24.75586 | -81.26467 | 28444 ft | 423 kts | 48° |
| 2026-04-30 13:35 | 24.77451 | -81.23948 | 27995 ft | 426 kts | 48° |
| 2026-04-30 13:35 | 24.81196 | -81.18923 | 27087 ft | 422 kts | 47° |
| 2026-04-30 13:36 | 24.84902 | -81.13966 | 26205 ft | 417 kts | 47° |
| 2026-04-30 13:36 | 24.86944 | -81.11753 | 25746 ft | 410 kts | 32° |
| 2026-04-30 13:36 | 24.91972 | -81.09013 | 24904 ft | 402 kts | 21° |
| 2026-04-30 13:37 | 24.94536 | -81.07796 | 24473 ft | 400 kts | 20° |
| 2026-04-30 13:37 | 24.99631 | -81.05362 | 23611 ft | 398 kts | 21° |
| 2026-04-30 13:38 | 25.04616 | -81.02930 | 22684 ft | 394 kts | 21° |
| 2026-04-30 13:38 | 25.07107 | -81.01704 | 22251 ft | 391 kts | 21° |
| 2026-04-30 13:38 | 25.12036 | -80.99267 | 21422 ft | 385 kts | 21° |
| 2026-04-30 13:39 | 25.16870 | -80.96874 | 20613 ft | 381 kts | 21° |
| 2026-04-30 13:39 | 25.21691 | -80.94486 | 19815 ft | 378 kts | 21° |
| 2026-04-30 13:40 | 25.24087 | -80.93299 | 19412 ft | 377 kts | 21° |
| 2026-04-30 13:40 | 25.26484 | -80.92111 | 18998 ft | 377 kts | 21° |
| 2026-04-30 13:40 | 25.28874 | -80.90925 | 18597 ft | 376 kts | 21° |
| 2026-04-30 13:40 | 25.31256 | -80.89743 | 18172 ft | 375 kts | 21° |
| 2026-04-30 13:41 | 25.33633 | -80.88563 | 17733 ft | 373 kts | 21° |
| 2026-04-30 13:41 | 25.35991 | -80.87392 | 17319 ft | 370 kts | 21° |
| 2026-04-30 13:41 | 25.38328 | -80.86218 | 16914 ft | 368 kts | 23° |
| 2026-04-30 13:41 | 25.40448 | -80.84620 | 16519 ft | 371 kts | 37° |
| 2026-04-30 13:42 | 25.42398 | -80.82761 | 16130 ft | 369 kts | 37° |
| 2026-04-30 13:42 | 25.44334 | -80.80917 | 15739 ft | 367 kts | 38° |
| 2026-04-30 13:42 | 25.48132 | -80.77167 | 14959 ft | 364 kts | 38° |
| 2026-04-30 13:43 | 25.50010 | -80.75314 | 14563 ft | 360 kts | 38° |
| 2026-04-30 13:43 | 25.51877 | -80.73480 | 14171 ft | 358 kts | 38° |
| 2026-04-30 13:43 | 25.53729 | -80.71664 | 13815 ft | 354 kts | 38° |
| 2026-04-30 13:43 | 25.55559 | -80.69868 | 13460 ft | 349 kts | 38° |
| 2026-04-30 13:44 | 25.57341 | -80.68120 | 13132 ft | 344 kts | 38° |
| 2026-04-30 13:44 | 25.59121 | -80.66373 | 12813 ft | 339 kts | 38° |
| 2026-04-30 13:44 | 25.60875 | -80.64650 | 12500 ft | 335 kts | 38° |
| 2026-04-30 13:44 | 25.62604 | -80.62951 | 12201 ft | 330 kts | 39° |
| 2026-04-30 13:45 | 25.65997 | -80.59616 | 11590 ft | 323 kts | 39° |
| 2026-04-30 13:45 | 25.67669 | -80.57971 | 11284 ft | 320 kts | 39° |
| 2026-04-30 13:45 | 25.69166 | -80.56173 | 10955 ft | 321 kts | 57° |
| 2026-04-30 13:46 | 25.69942 | -80.53866 | 10670 ft | 321 kts | 81° |
| 2026-04-30 13:46 | 25.70051 | -80.51408 | 10391 ft | 318 kts | 89° |
| 2026-04-30 13:46 | 25.70057 | -80.48951 | 10066 ft | 317 kts | 89° |
| 2026-04-30 13:46 | 25.70069 | -80.46526 | 9948 ft | 308 kts | 89° |
| 2026-04-30 13:47 | 25.70092 | -80.44200 | 9834 ft | 298 kts | 88° |
| 2026-04-30 13:47 | 25.70124 | -80.41846 | 9238 ft | 308 kts | 88° |
| 2026-04-30 13:47 | 25.70159 | -80.39464 | 8852 ft | 308 kts | 88° |
| 2026-04-30 13:47 | 25.70194 | -80.37098 | 8548 ft | 306 kts | 89° |
| 2026-04-30 13:48 | 25.70228 | -80.34751 | 8246 ft | 303 kts | 89° |
| 2026-04-30 13:48 | 25.70261 | -80.32451 | 7955 ft | 301 kts | 89° |
| 2026-04-30 13:48 | 25.70292 | -80.30116 | 7662 ft | 298 kts | 90° |
| 2026-04-30 13:48 | 25.69935 | -80.27906 | 7363 ft | 296 kts | 113° |
| 2026-04-30 13:49 | 25.68989 | -80.25868 | 7102 ft | 292 kts | 120° |
| 2026-04-30 13:49 | 25.68003 | -80.23953 | 6821 ft | 290 kts | 120° |
| 2026-04-30 13:49 | 25.66998 | -80.22016 | 6544 ft | 288 kts | 120° |
| 2026-04-30 13:49 | 25.66011 | -80.20097 | 6252 ft | 286 kts | 120° |
| 2026-04-30 13:50 | 25.65037 | -80.18185 | 5959 ft | 284 kts | 120° |
| 2026-04-30 13:50 | 25.63119 | -80.14392 | 5405 ft | 279 kts | 120° |
| 2026-04-30 13:50 | 25.62174 | -80.12522 | 5133 ft | 277 kts | 120° |
| 2026-04-30 13:51 | 25.61532 | -80.10540 | 4875 ft | 274 kts | 96° |
| 2026-04-30 13:51 | 25.61775 | -80.08485 | 4684 ft | 270 kts | 68° |
| 2026-04-30 13:51 | 25.62845 | -80.06823 | 4489 ft | 266 kts | 39° |
| 2026-04-30 13:51 | 25.64473 | -80.05942 | 4301 ft | 261 kts | 10° |
| 2026-04-30 13:52 | 25.66263 | -80.06028 | 4014 ft | 259 kts | 341° |
| 2026-04-30 13:52 | 25.67730 | -80.07131 | 3737 ft | 256 kts | 310° |
| 2026-04-30 13:52 | 25.68810 | -80.08659 | 3482 ft | 248 kts | 305° |
| 2026-04-30 13:52 | 25.69757 | -80.10232 | 3179 ft | 241 kts | 300° |
| 2026-04-30 13:53 | 25.70566 | -80.11790 | 3010 ft | 223 kts | 298° |
| 2026-04-30 13:53 | 25.71288 | -80.13228 | 2900 ft | 207 kts | 298° |
| 2026-04-30 13:53 | 25.71984 | -80.14607 | 2682 ft | 202 kts | 298° |
| 2026-04-30 13:53 | 25.72663 | -80.15945 | 2434 ft | 196 kts | 298° |
| 2026-04-30 13:54 | 25.73321 | -80.17239 | 2148 ft | 189 kts | 298° |
| 2026-04-30 13:54 | 25.73954 | -80.18486 | 1924 ft | 183 kts | 298° |
| 2026-04-30 13:54 | 25.74558 | -80.19677 | 1688 ft | 171 kts | 298° |
| 2026-04-30 13:54 | 25.75128 | -80.20792 | 1505 ft | 162 kts | 297° |
| 2026-04-30 13:55 | 25.75659 | -80.21834 | 1276 ft | 150 kts | 297° |
| 2026-04-30 13:55 | 25.76156 | -80.22822 | 1080 ft | 144 kts | 296° |
| 2026-04-30 13:55 | 25.76552 | -80.23604 | 931 ft | 145 kts | 297° |
| 2026-04-30 13:55 | 25.77042 | -80.24565 | 744 ft | 145 kts | 297° |
| 2026-04-30 13:56 | 25.77539 | -80.25541 | 561 ft | 146 kts | 297° |
| 2026-04-30 13:56 | 25.78035 | -80.26520 | 371 ft | 144 kts | 298° |
| 2026-04-30 13:56 | 25.78519 | -80.27472 | 164 ft | 140 kts | 299° |
| 2026-04-30 13:56 | 25.79003 | -80.28405 | 27 ft | 136 kts | 298° |
| 2026-04-30 13:57 | 25.79410 | -80.29210 | 14 ft | 98 kts | 299° |
| 2026-04-30 13:57 | 25.79648 | -80.29678 | 15 ft | 40 kts | 301° |
| 2026-04-30 13:57 | 25.79817 | -80.29811 | 12 ft | 23 kts | 4° |
| 2026-04-30 13:57 | 25.79899 | -80.29731 | 12 ft | 15 kts | 98° |
| 2026-04-30 13:58 | 25.79900 | -80.29621 | 13 ft | 14 kts | 87° |
| 2026-04-30 13:58 | 25.79908 | -80.29411 | 16 ft | 15 kts | 87° |
| 2026-04-30 13:58 | 25.79913 | -80.29290 | 18 ft | 17 kts | 87° |
| 2026-04-30 13:59 | 25.79919 | -80.29152 | 20 ft | 19 kts | 87° |
| 2026-04-30 13:59 | 25.79926 | -80.28993 | 20 ft | 22 kts | 88° |
| 2026-04-30 13:59 | 25.79933 | -80.28815 | 21 ft | 24 kts | 87° |
| 2026-04-30 13:59 | 25.79941 | -80.28619 | 19 ft | 26 kts | 87° |
| 2026-04-30 14:00 | 25.79949 | -80.28416 | 15 ft | 26 kts | 87° |
| 2026-04-30 14:00 | 25.79963 | -80.28083 | 12 ft | 21 kts | 88° |
| 2026-04-30 14:00 | 25.79970 | -80.27925 | 11 ft | 20 kts | 87° |
| 2026-04-30 14:01 | 25.79976 | -80.27771 | 15 ft | 20 kts | 87° |
| 2026-04-30 14:01 | 25.79982 | -80.27626 | 16 ft | 19 kts | 87° |
| 2026-04-30 14:01 | 25.79987 | -80.27482 | 17 ft | 18 kts | 88° |
| 2026-04-30 14:01 | 25.79993 | -80.27344 | 20 ft | 18 kts | 87° |
| 2026-04-30 14:02 | 25.79999 | -80.27224 | 22 ft | 13 kts | 87° |
| 2026-04-30 14:02 | 25.80001 | -80.27131 | 21 ft | 11 kts | 97° |
| 2026-04-30 14:02 | 25.79963 | -80.27064 | 22 ft | 10 kts | 127° |
| 2026-04-30 14:02 | 25.79920 | -80.27003 | 20 ft | 11 kts | 132° |
| 2026-04-30 14:03 | 25.79847 | -80.27004 | 21 ft | 12 kts | 206° |
| 2026-04-30 14:03 | 25.79777 | -80.27067 | 21 ft | 13 kts | 222° |
| 2026-04-30 14:03 | 25.79734 | -80.27151 | 19 ft | 13 kts | 267° |
| 2026-04-30 14:03 | 25.79730 | -80.27231 | 19 ft | 9 kts | 267° |
| 2026-04-30 14:04 | 25.79755 | -80.27282 | 18 ft | 7 kts | 323° |
| 2026-04-30 14:04 | 25.79773 | -80.27296 | 18 ft | 2 kts | 326° |
| 2026-04-30 14:04 | 25.79783 | -80.27303 | 19 ft | 1 kts | 326° |
| 2026-04-30 14:04 | 25.79786 | -80.27305 | 19 ft | 1 kts | 326° |
| 2026-04-30 14:05 | 25.79788 | -80.27307 | 19 ft | 0 kts | 326° |